Time;durP1;ratioP1;P1;durP2;ratioP2;P2;SDS_P1;SDS_P2;PMS_P1;PMS_P2;Temp;Humidity;BMP_temperature;BMP_pressure;BME280_temperature;BME280_humidity;BME280_pressure;Samples;Min_cycle;Max_cycle;Signal;HPM_P1;HPM_P2
2023/05/20 00:00:55;;;;;;;3.17;1.70;;;14.30;99.90;;;;;;5101918;28;20055;-58
2023/05/20 00:03:21;;;;;;;4.72;1.80;;;14.20;99.90;;;;;;5101319;28;20077;-55
2023/05/20 00:05:47;;;;;;;8.80;1.90;;;14.20;99.90;;;;;;5102668;28;20105;-57
2023/05/20 00:08:13;;;;;;;3.75;1.90;;;14.10;99.90;;;;;;5108803;28;20094;-57
2023/05/20 00:10:40;;;;;;;6.18;2.20;;;14.10;99.90;;;;;;5107963;28;20392;-57
2023/05/20 00:13:06;;;;;;;3.20;1.63;;;14.00;99.90;;;;;;5107878;28;20494;-54
2023/05/20 00:15:32;;;;;;;8.50;2.22;;;14.00;99.90;;;;;;5107925;28;20031;-56
2023/05/20 00:18:00;;;;;;;3.15;1.83;;;13.90;99.90;;;;;;5110957;28;20055;-57
2023/05/20 00:20:26;;;;;;;4.72;1.75;;;13.90;99.90;;;;;;5103544;28;20031;-55
2023/05/20 00:22:52;;;;;;;4.72;1.98;;;13.90;99.90;;;;;;5104068;28;20024;-57
2023/05/20 00:25:17;;;;;;;5.03;2.08;;;13.80;99.90;;;;;;5103856;28;20027;-58
2023/05/20 00:27:43;;;;;;;3.83;2.00;;;13.80;99.90;;;;;;5109015;28;20151;-58
2023/05/20 00:30:09;;;;;;;5.47;1.70;;;13.70;99.90;;;;;;5104788;28;20016;-51
2023/05/20 00:32:35;;;;;;;3.20;1.88;;;13.70;99.90;;;;;;5107811;28;20020;-52
2023/05/20 00:35:01;;;;;;;3.70;2.00;;;13.70;99.90;;;;;;5104435;28;20027;-56
2023/05/20 00:37:27;;;;;;;4.30;1.90;;;13.70;99.90;;;;;;5108580;28;20039;-58
2023/05/20 00:39:52;;;;;;;4.13;1.50;;;13.60;99.90;;;;;;5107094;28;20039;-57
2023/05/20 00:42:25;;;;;;;3.15;1.90;;;13.60;99.90;;;;;;5107344;28;20031;-58
2023/05/20 00:44:51;;;;;;;3.92;2.10;;;13.60;99.90;;;;;;5105186;28;20047;-55
2023/05/20 00:47:18;;;;;;;2.75;1.52;;;13.50;99.90;;;;;;5104750;28;20142;-57
2023/05/20 00:49:45;;;;;;;3.00;1.40;;;13.50;99.90;;;;;;5105654;28;20536;-54
2023/05/20 00:52:11;;;;;;;2.83;1.70;;;13.50;99.90;;;;;;5105721;28;20535;-54
2023/05/20 00:54:37;;;;;;;3.63;1.65;;;13.50;99.90;;;;;;5108254;28;20019;-53
2023/05/20 00:57:05;;;;;;;4.53;1.83;;;13.50;99.90;;;;;;5107606;28;20039;-57
2023/05/20 00:59:31;;;;;;;4.63;1.52;;;13.40;99.90;;;;;;5109140;28;20035;-55
2023/05/20 01:01:57;;;;;;;4.22;1.95;;;13.50;99.90;;;;;;5108352;28;20024;-56
2023/05/20 01:04:23;;;;;;;4.55;1.77;;;13.50;99.90;;;;;;5104620;28;20027;-54
2023/05/20 01:06:49;;;;;;;3.30;1.70;;;13.60;99.90;;;;;;5107187;28;20035;-57
2023/05/20 01:09:15;;;;;;;3.20;1.52;;;13.60;99.90;;;;;;5102781;28;20024;-56
2023/05/20 01:11:47;;;;;;;5.70;1.88;;;13.50;99.90;;;;;;5110115;28;20027;-55
2023/05/20 01:14:15;;;;;;;5.90;1.83;;;13.50;99.90;;;;;;5102562;28;20015;-54
2023/05/20 01:16:42;;;;;;;2.85;1.40;;;13.50;99.90;;;;;;5106441;28;20028;-52
2023/05/20 01:19:21;;;;;;;3.88;2.05;;;13.50;99.90;;;;;;5104654;28;20055;-53
2023/05/20 01:21:48;;;;;;;3.25;1.80;;;13.50;99.90;;;;;;5105593;28;20063;-55
2023/05/20 01:24:14;;;;;;;2.15;1.48;;;13.60;99.90;;;;;;5108572;28;20032;-52
2023/05/20 01:26:39;;;;;;;3.20;1.52;;;13.60;99.90;;;;;;5109262;28;20511;-57
2023/05/20 01:29:05;;;;;;;5.50;1.73;;;13.50;99.90;;;;;;5109492;28;20041;-54
2023/05/20 01:31:36;;;;;;;2.97;1.65;;;13.50;99.90;;;;;;5106275;28;20092;-56
2023/05/20 01:34:02;;;;;;;2.65;1.50;;;13.50;99.90;;;;;;5101977;28;20016;-54
2023/05/20 01:36:30;;;;;;;4.07;2.05;;;13.50;99.90;;;;;;5103551;28;20039;-53
2023/05/20 01:38:57;;;;;;;5.22;1.63;;;13.50;99.90;;;;;;5105045;28;20028;-55
2023/05/20 01:41:25;;;;;;;3.17;2.10;;;13.50;99.90;;;;;;5108556;28;20031;-55
2023/05/20 01:43:51;;;;;;;7.30;1.73;;;13.50;99.90;;;;;;5105224;28;20034;-58
2023/05/20 01:46:16;;;;;;;3.58;2.10;;;13.40;99.90;;;;;;5108701;28;20027;-58
2023/05/20 01:48:42;;;;;;;3.63;1.55;;;13.40;99.90;;;;;;5102027;28;20145;-58
2023/05/20 01:51:07;;;;;;;3.08;1.45;;;13.40;99.90;;;;;;5105872;28;20054;-57
2023/05/20 01:53:33;;;;;;;6.53;1.98;;;13.20;99.90;;;;;;5104916;28;20142;-58
2023/05/20 01:55:58;;;;;;;6.47;2.00;;;13.20;99.90;;;;;;5104628;28;20043;-58
2023/05/20 01:58:24;;;;;;;6.97;2.10;;;13.00;99.90;;;;;;5106786;28;20019;-57
2023/05/20 02:00:50;;;;;;;3.67;2.10;;;12.90;99.90;;;;;;5107882;28;20514;-56
2023/05/20 02:03:15;;;;;;;4.45;1.90;;;12.70;99.90;;;;;;5107744;28;20035;-56
2023/05/20 02:05:41;;;;;;;4.07;1.80;;;12.60;99.90;;;;;;5106510;28;20085;-53
2023/05/20 02:08:06;;;;;;;5.13;1.63;;;12.60;99.90;;;;;;5108309;28;20049;-53
2023/05/20 02:10:32;;;;;;;2.65;1.83;;;12.60;99.90;;;;;;5104132;28;20099;-58
2023/05/20 02:12:58;;;;;;;2.03;1.33;;;12.60;99.90;;;;;;5110673;28;20028;-57
2023/05/20 02:15:23;;;;;;;3.30;2.22;;;12.60;99.90;;;;;;5106499;28;20020;-58
2023/05/20 02:17:49;;;;;;;3.63;1.83;;;12.60;99.90;;;;;;5111937;28;20039;-58
2023/05/20 02:20:15;;;;;;;8.63;1.90;;;12.60;99.90;;;;;;5105607;28;20043;-57
2023/05/20 02:22:40;;;;;;;3.58;1.60;;;12.60;99.90;;;;;;5109463;28;20119;-56
2023/05/20 02:25:07;;;;;;;3.72;1.95;;;12.60;99.90;;;;;;5107511;27;20035;-54
2023/05/20 02:27:32;;;;;;;4.13;2.00;;;12.50;99.90;;;;;;5104595;28;20035;-57
2023/05/20 02:29:59;;;;;;;3.42;2.33;;;12.50;99.90;;;;;;5106267;28;20035;-57
2023/05/20 02:32:26;;;;;;;15.25;2.08;;;12.40;99.90;;;;;;5108996;28;20028;-57
2023/05/20 02:34:53;;;;;;;6.97;2.20;;;12.40;99.90;;;;;;5104261;28;20107;-57
2023/05/20 02:37:19;;;;;;;7.85;2.10;;;12.40;99.90;;;;;;5108189;28;20061;-56
2023/05/20 02:39:44;;;;;;;5.35;1.80;;;12.30;99.90;;;;;;5109593;28;20043;-56
2023/05/20 02:42:11;;;;;;;3.55;2.13;;;12.30;99.90;;;;;;5103066;28;20077;-57
2023/05/20 02:44:36;;;;;;;3.63;2.10;;;12.20;99.90;;;;;;5108971;28;20115;-53
2023/05/20 02:47:02;;;;;;;3.85;1.70;;;12.10;99.90;;;;;;5109612;28;20111;-58
2023/05/20 02:49:27;;;;;;;3.58;1.63;;;12.00;99.90;;;;;;5110523;28;20112;-54
2023/05/20 02:51:53;;;;;;;4.05;2.65;;;11.90;99.90;;;;;;5110392;28;20034;-55
2023/05/20 02:54:18;;;;;;;3.53;1.83;;;11.90;99.90;;;;;;5108181;28;20047;-56
2023/05/20 02:56:44;;;;;;;5.93;2.03;;;11.90;99.90;;;;;;5108438;28;20035;-55
2023/05/20 02:59:09;;;;;;;3.55;1.92;;;11.80;99.90;;;;;;5106240;28;20385;-55
2023/05/20 03:01:35;;;;;;;4.53;2.10;;;11.80;99.90;;;;;;5102790;28;20028;-55
2023/05/20 03:04:03;;;;;;;2.63;1.70;;;11.80;99.90;;;;;;5104013;28;20031;-54
2023/05/20 03:06:30;;;;;;;3.60;1.60;;;11.80;99.90;;;;;;5110526;28;20023;-54
2023/05/20 03:08:56;;;;;;;4.22;2.20;;;11.70;99.90;;;;;;5108598;28;20034;-57
2023/05/20 03:11:22;;;;;;;11.05;2.92;;;11.70;99.90;;;;;;5108998;28;20020;-57
2023/05/20 03:13:48;;;;;;;5.63;2.03;;;11.70;99.90;;;;;;5107131;28;20034;-58
2023/05/20 03:16:13;;;;;;;2.72;1.80;;;11.60;99.90;;;;;;5106143;28;20032;-55
2023/05/20 03:18:39;;;;;;;8.52;2.25;;;11.40;99.90;;;;;;5110485;28;20043;-54
2023/05/20 03:21:05;;;;;;;7.25;2.20;;;11.30;99.90;;;;;;5105899;28;20028;-56
2023/05/20 03:23:30;;;;;;;5.47;2.10;;;11.30;99.90;;;;;;5106575;28;20034;-59
2023/05/20 03:25:56;;;;;;;3.97;1.88;;;11.30;99.90;;;;;;5108778;28;20042;-56
2023/05/20 03:28:21;;;;;;;7.20;1.90;;;11.40;99.90;;;;;;5109113;28;20023;-57
2023/05/20 03:30:47;;;;;;;5.13;2.20;;;11.40;99.90;;;;;;5107642;28;20396;-54
2023/05/20 03:33:14;;;;;;;8.82;2.40;;;11.40;99.90;;;;;;5104574;28;20031;-57
2023/05/20 03:35:40;;;;;;;2.42;1.75;;;11.30;99.90;;;;;;5107599;28;20028;-53
2023/05/20 03:38:05;;;;;;;4.03;2.20;;;11.10;99.90;;;;;;5108793;28;20378;-55
2023/05/20 03:40:31;;;;;;;6.10;2.47;;;11.00;99.90;;;;;;5103243;28;20443;-57
2023/05/20 03:42:56;;;;;;;7.65;1.70;;;10.80;99.90;;;;;;5111475;28;20542;-54
2023/05/20 03:45:22;;;;;;;3.50;2.47;;;10.60;99.90;;;;;;5106635;28;20129;-57
2023/05/20 03:47:47;;;;;;;3.55;2.17;;;10.50;99.90;;;;;;5109944;28;20020;-55
2023/05/20 03:50:13;;;;;;;6.35;2.67;;;10.40;99.90;;;;;;5106269;28;20030;-56
2023/05/20 03:52:39;;;;;;;4.47;2.33;;;10.40;99.90;;;;;;5107471;28;20047;-56
2023/05/20 03:55:05;;;;;;;3.83;2.20;;;10.30;99.90;;;;;;5110861;28;20477;-56
2023/05/20 03:57:31;;;;;;;5.80;2.45;;;10.30;99.90;;;;;;5103462;28;20100;-57
2023/05/20 03:59:57;;;;;;;9.93;2.72;;;10.30;99.90;;;;;;5103324;28;20516;-53
2023/05/20 04:02:22;;;;;;;7.28;2.63;;;10.30;99.90;;;;;;5107790;28;20035;-54
2023/05/20 04:04:51;;;;;;;6.63;2.50;;;10.30;99.90;;;;;;5104722;28;20115;-55
2023/05/20 04:07:17;;;;;;;6.30;2.55;;;10.40;99.90;;;;;;5106557;28;20484;-53
2023/05/20 04:09:43;;;;;;;8.23;2.50;;;10.40;99.90;;;;;;5108696;28;20031;-56
2023/05/20 04:12:08;;;;;;;4.55;2.80;;;10.40;99.90;;;;;;5102443;28;20028;-50
2023/05/20 04:14:34;;;;;;;7.32;2.10;;;10.50;99.90;;;;;;5107765;28;20020;-57
2023/05/20 04:17:03;;;;;;;6.85;2.65;;;10.50;99.90;;;;;;5107889;28;20094;-54
2023/05/20 04:19:29;;;;;;;4.38;2.28;;;10.60;99.90;;;;;;5108293;28;20059;-57
2023/05/20 04:21:55;;;;;;;3.80;2.50;;;10.70;99.90;;;;;;5106271;28;20063;-56
2023/05/20 04:24:24;;;;;;;4.80;2.78;;;10.80;99.90;;;;;;5109398;28;20035;-56
2023/05/20 04:26:50;;;;;;;6.78;2.40;;;10.90;99.90;;;;;;5106422;28;20024;-57
2023/05/20 04:29:17;;;;;;;4.88;2.35;;;11.00;99.90;;;;;;5105456;28;20042;-57
2023/05/20 04:31:46;;;;;;;4.97;2.30;;;11.10;99.90;;;;;;5106939;28;20474;-57
2023/05/20 04:34:12;;;;;;;4.15;2.42;;;11.20;99.90;;;;;;5105392;28;20050;-56
2023/05/20 04:36:38;;;;;;;7.35;2.10;;;11.20;99.90;;;;;;5107861;28;20027;-56
2023/05/20 04:39:04;;;;;;;3.72;2.50;;;11.30;99.90;;;;;;5109049;28;20031;-51
2023/05/20 04:41:30;;;;;;;3.83;2.30;;;11.30;99.90;;;;;;5104299;28;20051;-53
2023/05/20 04:43:59;;;;;;;4.00;2.20;;;11.40;99.90;;;;;;5107021;28;20055;-57
2023/05/20 04:46:25;;;;;;;6.10;2.35;;;11.30;99.90;;;;;;5106117;28;20480;-52
2023/05/20 04:48:51;;;;;;;3.75;2.47;;;11.20;99.90;;;;;;5107384;28;20019;-50
2023/05/20 04:51:17;;;;;;;3.53;1.98;;;11.20;99.90;;;;;;5101896;28;20508;-51
2023/05/20 04:53:43;;;;;;;6.82;2.50;;;11.20;99.90;;;;;;5109300;28;20030;-51
2023/05/20 04:56:09;;;;;;;7.72;3.08;;;11.20;99.90;;;;;;5102040;28;20111;-51
2023/05/20 04:58:35;;;;;;;5.93;2.60;;;11.20;99.90;;;;;;5106587;28;20114;-51
2023/05/20 05:01:01;;;;;;;6.55;3.10;;;11.20;99.90;;;;;;5102344;28;20030;-51
2023/05/20 05:03:27;;;;;;;5.63;2.67;;;11.20;99.90;;;;;;5105198;28;20024;-52
2023/05/20 05:05:56;;;;;;;3.40;2.20;;;11.20;99.90;;;;;;5102702;28;20023;-53
2023/05/20 05:08:22;;;;;;;7.07;2.95;;;11.20;99.90;;;;;;5106927;28;20564;-54
2023/05/20 05:10:47;;;;;;;5.03;2.67;;;11.20;99.90;;;;;;5109075;28;20023;-51
2023/05/20 05:13:13;;;;;;;5.57;2.67;;;11.30;99.90;;;;;;5107709;28;20032;-52
2023/05/20 05:15:38;;;;;;;6.93;2.97;;;11.40;99.90;;;;;;5105080;28;20027;-51
2023/05/20 05:18:04;;;;;;;7.35;2.78;;;11.40;99.90;;;;;;5108593;28;20032;-52
2023/05/20 05:20:29;;;;;;;6.25;2.55;;;11.50;99.90;;;;;;5106311;28;20077;-51
2023/05/20 05:22:55;;;;;;;6.82;3.00;;;11.50;99.90;;;;;;5106375;28;20042;-54
2023/05/20 05:25:20;;;;;;;5.78;2.38;;;11.50;99.90;;;;;;5099810;28;20030;-51
2023/05/20 05:27:49;;;;;;;9.38;2.75;;;11.50;99.90;;;;;;5109352;28;20032;-55
2023/05/20 05:30:15;;;;;;;6.22;2.72;;;11.50;99.90;;;;;;5104781;28;20023;-51
2023/05/20 05:32:40;;;;;;;5.38;2.53;;;11.60;99.90;;;;;;5108903;28;20148;-51
2023/05/20 05:35:06;;;;;;;5.35;2.97;;;11.70;99.90;;;;;;5104570;28;20027;-55
2023/05/20 05:37:32;;;;;;;7.53;2.92;;;11.80;99.90;;;;;;5111097;28;20088;-54
2023/05/20 05:39:57;;;;;;;5.45;3.10;;;11.90;99.90;;;;;;5109379;28;20116;-53
2023/05/20 05:42:23;;;;;;;6.22;3.38;;;12.00;99.90;;;;;;5103716;28;20036;-55
2023/05/20 05:44:49;;;;;;;8.38;3.17;;;12.10;99.90;;;;;;5107697;28;20028;-53
2023/05/20 05:47:14;;;;;;;4.70;2.63;;;12.20;99.90;;;;;;5109074;28;20024;-53
2023/05/20 05:49:40;;;;;;;4.50;2.75;;;12.30;99.90;;;;;;5109796;28;20032;-55
2023/05/20 05:52:06;;;;;;;7.82;3.13;;;12.50;99.90;;;;;;5104473;28;20916;-52
2023/05/20 05:54:31;;;;;;;6.35;3.60;;;12.60;99.90;;;;;;5110473;28;20375;-51
2023/05/20 05:56:57;;;;;;;7.97;3.08;;;12.70;99.90;;;;;;5106833;28;20055;-57
2023/05/20 05:59:22;;;;;;;4.10;2.80;;;12.80;99.90;;;;;;5108011;28;20027;-52
2023/05/20 06:01:48;;;;;;;4.00;2.83;;;12.90;99.90;;;;;;5112729;28;20085;-55
2023/05/20 06:04:13;;;;;;;5.43;2.85;;;13.10;99.90;;;;;;5110511;28;20035;-54
2023/05/20 06:06:42;;;;;;;7.18;3.08;;;13.20;99.90;;;;;;5111337;28;20669;-56
2023/05/20 06:09:08;;;;;;;3.83;2.53;;;13.20;99.90;;;;;;5110502;28;20027;-57
2023/05/20 06:11:33;;;;;;;6.72;3.05;;;13.30;99.90;;;;;;5109894;27;20032;-52
2023/05/20 06:13:59;;;;;;;6.82;3.38;;;13.40;99.90;;;;;;5112764;28;20323;-58
2023/05/20 06:16:25;;;;;;;3.70;2.90;;;13.60;99.90;;;;;;5106165;28;20132;-52
2023/05/20 06:18:52;;;;;;;5.00;2.85;;;13.70;99.90;;;;;;5110928;28;20122;-54
2023/05/20 06:21:17;;;;;;;4.28;2.50;;;13.80;99.90;;;;;;5104193;28;20507;-51
2023/05/20 06:23:43;;;;;;;8.32;2.83;;;13.90;99.90;;;;;;5112184;28;20106;-52
2023/05/20 06:26:09;;;;;;;7.57;3.20;;;13.90;99.90;;;;;;5108638;28;20028;-55
2023/05/20 06:28:34;;;;;;;6.63;3.13;;;14.00;99.90;;;;;;5108514;28;20024;-52
2023/05/20 06:31:00;;;;;;;8.32;2.83;;;14.20;99.90;;;;;;5104302;28;20065;-55
2023/05/20 06:33:27;;;;;;;4.50;2.83;;;14.30;99.90;;;;;;5108975;28;20027;-55
2023/05/20 06:35:55;;;;;;;4.47;3.00;;;14.40;99.90;;;;;;5108323;28;20122;-51
2023/05/20 06:38:20;;;;;;;5.45;3.13;;;14.50;99.90;;;;;;5111429;28;20088;-51
2023/05/20 06:40:50;;;;;;;12.10;3.28;;;14.70;99.90;;;;;;5105807;28;20027;-55
2023/05/20 06:43:16;;;;;;;8.07;3.08;;;14.70;99.90;;;;;;5110531;28;20043;-54
2023/05/20 06:45:42;;;;;;;8.75;3.10;;;14.80;99.90;;;;;;5106379;28;20070;-58
2023/05/20 06:48:08;;;;;;;5.18;3.13;;;14.90;99.90;;;;;;5107608;28;20020;-58
2023/05/20 06:50:34;;;;;;;7.15;3.05;;;14.90;99.90;;;;;;5109949;28;20039;-57
2023/05/20 06:53:00;;;;;;;8.02;2.80;;;15.10;99.90;;;;;;5112513;28;20031;-56
2023/05/20 06:55:26;;;;;;;3.80;2.63;;;15.10;99.90;;;;;;5107721;28;20335;-56
2023/05/20 06:57:51;;;;;;;5.30;2.97;;;15.20;99.90;;;;;;5108786;28;20016;-58
2023/05/20 07:00:17;;;;;;;5.75;2.83;;;15.30;99.90;;;;;;5108250;28;20032;-56
2023/05/20 07:02:43;;;;;;;8.07;3.28;;;15.40;99.90;;;;;;5111640;28;20539;-52
2023/05/20 07:05:09;;;;;;;4.28;2.67;;;15.50;99.90;;;;;;5109328;28;20100;-54
2023/05/20 07:07:34;;;;;;;6.20;3.40;;;15.60;99.90;;;;;;5104842;28;20149;-55
2023/05/20 07:10:00;;;;;;;6.30;2.90;;;15.70;99.90;;;;;;5095925;28;20059;-55
2023/05/20 07:12:26;;;;;;;8.43;2.90;;;15.70;99.90;;;;;;5108712;28;20065;-56
2023/05/20 07:14:51;;;;;;;8.90;3.08;;;15.80;99.90;;;;;;5109154;28;20425;-56
2023/05/20 07:17:17;;;;;;;4.45;2.78;;;15.90;99.90;;;;;;5107291;28;20027;-58
2023/05/20 07:19:42;;;;;;;3.67;2.85;;;16.00;99.90;;;;;;5106613;28;20080;-55
2023/05/20 07:22:08;;;;;;;10.80;3.28;;;16.00;99.90;;;;;;5105813;27;20110;-56
2023/05/20 07:24:35;;;;;;;4.57;2.72;;;16.10;99.90;;;;;;5109545;28;20020;-57
2023/05/20 07:27:00;;;;;;;4.40;3.05;;;16.20;99.90;;;;;;5110916;28;20034;-57
2023/05/20 07:29:26;;;;;;;4.18;2.83;;;16.20;99.90;;;;;;5110522;27;20019;-57
2023/05/20 07:31:51;;;;;;;6.28;2.80;;;16.30;99.90;;;;;;5108249;28;20492;-55
2023/05/20 07:34:17;;;;;;;12.52;4.63;;;16.40;99.90;;;;;;5110024;28;20019;-55
2023/05/20 07:36:43;;;;;;;3.25;2.65;;;16.50;99.90;;;;;;5107133;28;20034;-58
2023/05/20 07:39:09;;;;;;;7.10;3.03;;;16.50;99.90;;;;;;5109060;27;20497;-58
2023/05/20 07:41:35;;;;;;;4.30;2.70;;;16.60;99.90;;;;;;5105501;28;20051;-55
2023/05/20 07:44:04;;;;;;;4.57;2.63;;;16.60;99.90;;;;;;5110655;27;20074;-56
2023/05/20 07:46:30;;;;;;;3.50;2.15;;;16.60;99.90;;;;;;5107303;28;20419;-53
2023/05/20 07:48:55;;;;;;;7.10;2.97;;;16.60;99.90;;;;;;5105718;28;20019;-58
2023/05/20 07:51:21;;;;;;;5.32;3.10;;;16.70;99.90;;;;;;5109112;28;20024;-55
2023/05/20 07:53:47;;;;;;;6.80;3.08;;;16.70;99.90;;;;;;5106708;28;20024;-57
2023/05/20 07:56:13;;;;;;;10.82;2.97;;;16.80;99.90;;;;;;5108563;28;20023;-60
2023/05/20 07:58:41;;;;;;;5.13;3.00;;;16.90;99.90;;;;;;5106362;28;20060;-56
2023/05/20 08:01:08;;;;;;;5.18;3.00;;;17.00;99.90;;;;;;5107736;28;20024;-56
2023/05/20 08:03:34;;;;;;;6.05;3.35;;;17.10;99.90;;;;;;5106611;28;20019;-56
2023/05/20 08:06:00;;;;;;;5.88;2.70;;;17.10;99.90;;;;;;5109604;28;20024;-57
2023/05/20 08:08:27;;;;;;;5.10;2.95;;;17.10;99.90;;;;;;5104294;28;20020;-58
2023/05/20 08:10:53;;;;;;;6.10;2.33;;;17.20;99.90;;;;;;5106565;28;20451;-57
2023/05/20 08:13:18;;;;;;;4.72;2.42;;;17.30;99.90;;;;;;5108753;27;20023;-56
2023/05/20 08:15:44;;;;;;;5.20;2.97;;;17.40;99.90;;;;;;5101842;28;20095;-58
2023/05/20 08:18:10;;;;;;;4.10;2.63;;;17.50;99.90;;;;;;5099839;28;20032;-57
2023/05/20 08:20:35;;;;;;;5.07;2.53;;;17.50;99.90;;;;;;5106366;28;20385;-58
2023/05/20 08:23:01;;;;;;;5.63;2.97;;;17.50;99.90;;;;;;5103322;28;20051;-58
2023/05/20 08:25:26;;;;;;;4.30;2.95;;;17.60;99.90;;;;;;5107934;28;20486;-56
2023/05/20 08:27:52;;;;;;;3.65;2.50;;;17.70;99.90;;;;;;5107478;28;20031;-54
2023/05/20 08:30:17;;;;;;;4.88;2.50;;;17.70;99.90;;;;;;5108577;28;20031;-56
2023/05/20 08:32:43;;;;;;;4.25;2.80;;;17.70;99.90;;;;;;5100317;28;20035;-56
2023/05/20 08:35:09;;;;;;;3.17;2.47;;;17.80;99.90;;;;;;5101201;28;20083;-56
2023/05/20 08:37:34;;;;;;;4.05;2.83;;;17.80;99.90;;;;;;5102970;28;20020;-58
2023/05/20 08:40:00;;;;;;;5.25;3.03;;;17.90;99.90;;;;;;5109680;28;20023;-56
2023/05/20 08:42:25;;;;;;;4.13;2.30;;;17.90;99.90;;;;;;5107119;28;20063;-52
2023/05/20 08:44:52;;;;;;;6.50;3.00;;;17.90;99.90;;;;;;5105623;28;20030;-54
2023/05/20 08:47:21;;;;;;;9.32;2.55;;;18.00;99.90;;;;;;5101955;28;20092;-57
2023/05/20 08:49:50;;;;;;;4.57;2.88;;;18.00;99.90;;;;;;5106424;27;20036;-58
2023/05/20 08:52:20;;;;;;;6.18;2.88;;;18.20;99.90;;;;;;5102770;28;20028;-56
2023/05/20 08:54:48;;;;;;;5.10;2.95;;;18.30;99.90;;;;;;5101872;28;20023;-56
2023/05/20 08:57:14;;;;;;;5.13;2.75;;;18.30;99.90;;;;;;5101249;28;20063;-55
2023/05/20 08:59:44;;;;;;;6.03;2.88;;;18.30;99.90;;;;;;5106749;28;20043;-56
2023/05/20 09:02:10;;;;;;;5.10;2.50;;;18.30;99.90;;;;;;5106057;28;20441;-58
2023/05/20 09:04:36;;;;;;;6.22;3.05;;;18.40;99.90;;;;;;5106264;28;20055;-58
2023/05/20 09:07:02;;;;;;;6.35;3.00;;;18.50;99.90;;;;;;5106458;28;20512;-58
2023/05/20 09:09:28;;;;;;;4.90;2.97;;;18.70;99.90;;;;;;5105345;28;20439;-56
2023/05/20 09:11:54;;;;;;;7.47;2.88;;;18.70;99.90;;;;;;5107320;28;20118;-56
2023/05/20 09:14:19;;;;;;;6.00;2.90;;;18.70;99.90;;;;;;5106722;28;20110;-57
2023/05/20 09:16:47;;;;;;;9.63;3.03;;;18.70;99.90;;;;;;5107124;28;20497;-54
2023/05/20 09:19:12;;;;;;;4.60;2.80;;;18.80;99.90;;;;;;5107232;28;20035;-56
2023/05/20 09:21:40;;;;;;;5.10;2.78;;;18.90;99.90;;;;;;5103000;28;20031;-56
2023/05/20 09:24:06;;;;;;;4.97;2.65;;;18.90;99.90;;;;;;5108242;28;20391;-58
2023/05/20 09:26:31;;;;;;;4.72;2.67;;;19.10;99.90;;;;;;5106746;28;20031;-54
2023/05/20 09:28:58;;;;;;;4.93;2.75;;;19.20;99.90;;;;;;5107907;28;20415;-51
2023/05/20 09:31:32;;;;;;;4.68;3.10;;;19.20;99.90;;;;;;5102786;28;20028;-52
2023/05/20 09:33:59;;;;;;;4.95;2.67;;;19.20;99.90;;;;;;5104164;28;20022;-52
2023/05/20 09:36:28;;;;;;;9.25;3.25;;;19.30;99.90;;;;;;5106097;28;20032;-57
2023/05/20 09:38:58;;;;;;;4.50;2.65;;;19.40;99.90;;;;;;5105419;28;20030;-53
2023/05/20 09:41:32;;;;;;;6.78;3.00;;;19.30;99.90;;;;;;5098618;28;20577;-56
2023/05/20 09:43:58;;;;;;;4.00;2.50;;;19.60;99.90;;;;;;5103707;28;20024;-57
2023/05/20 09:46:26;;;;;;;8.63;3.25;;;19.90;99.90;;;;;;5108433;28;20031;-60
2023/05/20 09:48:52;;;;;;;5.70;3.00;;;20.00;99.90;;;;;;5103094;28;20043;-56
2023/05/20 09:51:18;;;;;;;5.25;2.90;;;20.00;99.90;;;;;;5099511;28;20070;-53
2023/05/20 09:53:43;;;;;;;4.57;2.90;;;19.90;99.90;;;;;;5102566;28;20055;-57
2023/05/20 09:56:10;;;;;;;4.95;3.15;;;20.00;99.90;;;;;;5102885;28;20027;-55
2023/05/20 09:58:36;;;;;;;3.85;2.72;;;20.00;99.90;;;;;;5105286;28;20032;-56
2023/05/20 10:01:02;;;;;;;5.53;3.10;;;19.90;99.90;;;;;;5101674;28;20674;-55
2023/05/20 10:03:28;;;;;;;3.17;2.55;;;19.90;99.90;;;;;;5100334;28;20028;-57
2023/05/20 10:06:30;;;;;;;5.95;3.03;;;20.00;99.90;;;;;;5105838;28;20024;-54
2023/05/20 10:09:24;;;;;;;4.50;3.28;;;20.30;99.90;;;;;;5097774;28;20055;-51
2023/05/20 10:12:09;;;;;;;4.50;2.60;;;20.50;99.90;;;;;;5103209;28;20500;-57
2023/05/20 10:14:55;;;;;;;11.90;2.58;;;20.50;99.90;;;;;;5103161;28;20040;-58
2023/05/20 10:17:30;;;;;;;3.85;2.72;;;20.50;99.90;;;;;;5095587;28;20523;-57
2023/05/20 10:20:00;;;;;;;3.95;2.63;;;20.50;99.90;;;;;;5102165;28;20032;-58
2023/05/20 10:22:33;;;;;;;6.90;2.42;;;20.60;99.90;;;;;;5101462;28;20066;-55
2023/05/20 10:25:05;;;;;;;5.93;3.05;;;20.50;99.90;;;;;;5111063;28;20402;-56
2023/05/20 10:27:45;;;;;;;4.75;2.95;;;20.40;99.90;;;;;;5105059;28;20024;-58
2023/05/20 10:30:21;;;;;;;6.57;2.85;;;20.30;99.90;;;;;;5109883;27;20030;-54
2023/05/20 10:32:55;;;;;;;4.00;3.00;;;20.30;99.90;;;;;;5108859;28;20389;-56
2023/05/20 10:35:25;;;;;;;4.22;2.83;;;20.20;99.90;;;;;;5106857;28;20032;-53
2023/05/20 10:37:51;;;;;;;5.75;2.78;;;20.20;99.90;;;;;;5110735;28;20031;-54
2023/05/20 10:40:19;;;;;;;4.45;2.80;;;20.30;99.90;;;;;;5107761;28;20082;-57
2023/05/20 10:42:46;;;;;;;5.43;3.15;;;20.10;99.90;;;;;;5106072;28;20107;-52
2023/05/20 10:45:23;;;;;;;7.13;2.70;;;20.20;99.90;;;;;;5106593;28;20023;-57
2023/05/20 10:47:56;;;;;;;3.25;2.33;;;20.40;99.90;;;;;;5101747;28;20032;-54
2023/05/20 10:50:36;;;;;;;7.83;3.03;;;20.60;99.90;;;;;;5104346;28;20397;-57
2023/05/20 10:53:04;;;;;;;4.28;2.95;;;20.50;99.90;;;;;;5108996;28;20035;-57
2023/05/20 10:55:36;;;;;;;3.97;2.78;;;20.50;99.90;;;;;;5102786;28;20031;-57
2023/05/20 10:58:02;;;;;;;3.92;2.72;;;20.70;99.90;;;;;;5110767;28;20024;-56
2023/05/20 11:00:28;;;;;;;4.18;3.17;;;21.00;99.90;;;;;;5101461;28;20027;-55
2023/05/20 11:02:54;;;;;;;3.17;2.60;;;21.10;99.90;;;;;;5098703;28;20070;-51
2023/05/20 11:05:21;;;;;;;9.90;2.80;;;21.20;99.90;;;;;;5101478;28;20043;-55
2023/05/20 11:07:46;;;;;;;3.97;2.63;;;21.20;99.90;;;;;;5107560;27;20051;-58
2023/05/20 11:10:12;;;;;;;6.35;3.25;;;21.40;99.90;;;;;;5110909;28;20396;-58
2023/05/20 11:12:38;;;;;;;5.00;3.35;;;21.20;99.90;;;;;;5107327;28;20024;-58
2023/05/20 11:15:04;;;;;;;8.02;2.42;;;20.90;99.90;;;;;;5107063;28;20034;-57
2023/05/20 11:17:30;;;;;;;5.80;3.58;;;20.90;99.90;;;;;;5107523;28;20114;-59
2023/05/20 11:19:59;;;;;;;12.52;3.67;;;21.00;99.90;;;;;;5105638;28;20111;-56
2023/05/20 11:22:25;;;;;;;4.40;2.60;;;21.00;99.90;;;;;;5109194;28;20028;-57
2023/05/20 11:24:50;;;;;;;4.72;2.78;;;21.20;99.90;;;;;;5106982;28;20027;-54
2023/05/20 11:27:16;;;;;;;6.05;3.10;;;21.20;99.90;;;;;;5108027;28;20024;-59
2023/05/20 11:29:42;;;;;;;4.03;3.05;;;21.30;99.90;;;;;;5110805;28;20028;-56
2023/05/20 11:32:08;;;;;;;4.43;3.38;;;21.30;99.90;;;;;;5111471;27;20027;-57
2023/05/20 11:34:35;;;;;;;8.57;3.97;;;21.40;99.90;;;;;;5109769;28;20397;-58
2023/05/20 11:37:01;;;;;;;8.02;3.20;;;21.30;99.90;;;;;;5111365;28;20019;-59
2023/05/20 11:39:29;;;;;;;6.35;3.00;;;21.20;99.90;;;;;;5111197;28;20035;-58
2023/05/20 11:41:54;;;;;;;5.28;3.47;;;21.00;99.90;;;;;;5111699;28;20544;-57
2023/05/20 11:44:20;;;;;;;5.72;3.28;;;20.90;99.90;;;;;;5104527;28;20104;-56
2023/05/20 11:46:47;;;;;;;4.30;3.08;;;20.90;99.90;;;;;;5106321;28;20039;-54
2023/05/20 11:49:13;;;;;;;4.63;3.30;;;21.00;99.90;;;;;;5107065;28;20385;-54
2023/05/20 11:51:39;;;;;;;5.90;3.55;;;21.10;99.90;;;;;;5105027;28;20117;-57
2023/05/20 11:54:06;;;;;;;4.57;3.08;;;21.00;99.90;;;;;;5107288;28;20046;-56
2023/05/20 11:56:37;;;;;;;5.70;3.53;;;20.80;99.90;;;;;;5105123;28;20425;-56
2023/05/20 11:59:04;;;;;;;5.00;3.42;;;20.90;99.90;;;;;;5102151;28;20019;-56
2023/05/20 12:01:39;;;;;;;5.07;3.35;;;21.00;99.90;;;;;;5108711;28;20051;-58
2023/05/20 12:04:06;;;;;;;9.45;3.97;;;20.90;99.90;;;;;;5099156;28;20027;-54
2023/05/20 12:06:32;;;;;;;8.68;4.35;;;20.70;99.90;;;;;;5105870;28;20043;-57
2023/05/20 12:09:05;;;;;;;8.18;4.22;;;20.60;99.90;;;;;;5106420;28;20439;-55
2023/05/20 12:11:32;;;;;;;6.63;4.10;;;20.50;99.90;;;;;;5105740;28;20463;-57
2023/05/20 12:13:58;;;;;;;4.43;3.45;;;20.60;99.90;;;;;;5100800;28;20022;-54
2023/05/20 12:16:23;;;;;;;5.82;3.47;;;20.50;99.90;;;;;;5097073;28;20684;-56
2023/05/20 12:18:49;;;;;;;6.80;4.13;;;20.40;99.90;;;;;;5105202;28;20046;-53
2023/05/20 12:21:14;;;;;;;10.15;3.60;;;20.30;99.90;;;;;;5104907;28;20024;-56
2023/05/20 12:23:40;;;;;;;7.70;4.80;;;20.40;99.90;;;;;;5109597;28;20027;-58
2023/05/20 12:26:05;;;;;;;6.93;4.28;;;20.20;99.90;;;;;;5108851;28;20043;-57
2023/05/20 12:28:32;;;;;;;8.60;3.83;;;20.30;99.90;;;;;;5106072;28;20442;-56
2023/05/20 12:30:57;;;;;;;7.90;4.40;;;20.30;99.90;;;;;;5102358;28;20047;-51
2023/05/20 12:33:23;;;;;;;6.32;3.90;;;20.40;99.90;;;;;;5107790;28;20393;-52
2023/05/20 12:35:48;;;;;;;7.50;3.33;;;20.40;99.90;;;;;;5106227;28;20016;-57
2023/05/20 12:38:14;;;;;;;7.38;4.20;;;20.30;99.90;;;;;;5107038;28;20713;-56
2023/05/20 12:40:39;;;;;;;5.18;3.72;;;20.60;99.90;;;;;;5110883;28;20241;-55
2023/05/20 12:43:05;;;;;;;5.75;3.35;;;20.80;99.90;;;;;;5103914;28;20027;-58